createdAt,value
2023-04-17T00:00:07.381Z,8.40
2023-04-17T00:02:40.088Z,8.40
2023-04-17T00:05:09.282Z,8.30
2023-04-17T00:07:41.441Z,8.20
2023-04-17T00:10:11.215Z,8.20
2023-04-17T00:12:38.926Z,8.20
2023-04-17T00:15:07.579Z,8.10
2023-04-17T00:17:35.104Z,8.10
2023-04-17T00:20:08.175Z,8.10
2023-04-17T00:22:35.800Z,8.00
2023-04-17T00:25:04.138Z,8.00
2023-04-17T00:27:31.904Z,8.00
2023-04-17T00:29:59.437Z,8.00
2023-04-17T00:32:26.967Z,8.00
2023-04-17T00:34:55.794Z,8.00
2023-04-17T00:37:23.426Z,8.00
2023-04-17T00:39:50.967Z,7.90
2023-04-17T00:42:18.432Z,7.90
2023-04-17T00:44:46.197Z,7.90
2023-04-17T00:47:14.454Z,7.90
2023-04-17T00:49:42.109Z,7.90
2023-04-17T00:52:10.302Z,7.90
2023-04-17T00:54:38.142Z,7.80
2023-04-17T00:57:06.606Z,7.70
2023-04-17T00:59:34.756Z,7.70
2023-04-17T01:02:02.458Z,7.60
2023-04-17T01:04:30.143Z,7.60
2023-04-17T01:06:59.567Z,7.60
2023-04-17T01:09:27.765Z,7.60
2023-04-17T01:11:55.241Z,7.50
2023-04-17T01:14:22.751Z,7.40
2023-04-17T01:16:51.382Z,7.40
2023-04-17T01:19:19.412Z,7.30
2023-04-17T01:21:46.870Z,7.30
2023-04-17T01:24:14.505Z,7.30
2023-04-17T01:26:42.236Z,7.40
2023-04-17T01:29:09.909Z,7.40
2023-04-17T01:31:37.464Z,7.40
2023-04-17T01:34:04.952Z,7.50
2023-04-17T01:36:32.534Z,7.50
2023-04-17T01:38:59.963Z,7.50
2023-04-17T01:41:28.713Z,7.50
2023-04-17T01:43:56.269Z,7.50
2023-04-17T01:46:23.861Z,7.50
2023-04-17T01:48:51.972Z,7.50
2023-04-17T01:51:19.481Z,7.50
2023-04-17T01:53:46.976Z,7.70
2023-04-17T01:56:14.478Z,7.80
2023-04-17T01:58:43.104Z,7.90
2023-04-17T02:01:10.853Z,7.90
2023-04-17T02:03:38.611Z,8.00
2023-04-17T02:06:06.630Z,8.10
2023-04-17T02:08:34.785Z,8.10
2023-04-17T02:11:02.462Z,8.10
2023-04-17T02:13:29.981Z,8.10
2023-04-17T02:15:57.922Z,8.10
2023-04-17T02:18:26.757Z,8.10
2023-04-17T02:20:54.283Z,8.20
2023-04-17T02:23:21.815Z,8.20
2023-04-17T02:25:49.408Z,8.20
2023-04-17T02:28:17.903Z,8.20
2023-04-17T02:30:46.044Z,8.30
2023-04-17T02:33:13.697Z,8.30
2023-04-17T02:35:41.591Z,8.30
2023-04-17T02:38:09.096Z,8.30
2023-04-17T02:40:36.675Z,8.30
2023-04-17T02:43:04.212Z,8.30
2023-04-17T02:45:31.683Z,8.30
2023-04-17T02:47:59.999Z,8.20
2023-04-17T02:50:27.541Z,8.20
2023-04-17T02:52:55.000Z,8.20
2023-04-17T02:55:22.637Z,8.10
2023-04-17T02:57:50.139Z,8.10
2023-04-17T03:00:18.008Z,8.20
2023-04-17T03:02:46.490Z,8.20
2023-04-17T03:05:15.194Z,8.20
2023-04-17T03:07:42.658Z,8.10
2023-04-17T03:10:11.352Z,8.10
2023-04-17T03:12:39.430Z,8.10
2023-04-17T03:15:08.929Z,8.00
2023-04-17T03:17:36.662Z,8.10
2023-04-17T03:20:05.319Z,8.10
2023-04-17T03:22:32.790Z,8.10
2023-04-17T03:25:00.312Z,8.10
2023-04-17T03:27:27.757Z,8.10
2023-04-17T03:29:58.380Z,8.00
2023-04-17T03:32:25.969Z,8.00
2023-04-17T03:34:53.596Z,8.00
2023-04-17T03:37:21.256Z,8.10
2023-04-17T03:39:48.790Z,8.10
2023-04-17T03:42:16.337Z,8.10
2023-04-17T03:44:44.056Z,8.10
2023-04-17T03:47:11.581Z,8.20
2023-04-17T03:49:39.045Z,8.20
2023-04-17T03:52:06.708Z,8.10
2023-04-17T03:54:35.895Z,8.20
2023-04-17T03:57:04.437Z,8.20
2023-04-17T03:59:32.419Z,8.10
2023-04-17T04:02:00.367Z,8.20
2023-04-17T04:04:28.230Z,8.20
2023-04-17T04:06:57.923Z,8.20
2023-04-17T04:09:25.973Z,8.20
2023-04-17T04:11:53.697Z,8.20
2023-04-17T04:14:21.499Z,8.20
2023-04-17T04:16:49.449Z,8.30
2023-04-17T04:19:17.409Z,8.30
2023-04-17T04:21:45.389Z,8.30
2023-04-17T04:24:14.345Z,8.30
2023-04-17T04:26:42.510Z,8.20
2023-04-17T04:29:12.014Z,8.20
2023-04-17T04:31:40.403Z,8.10
2023-04-17T04:34:09.186Z,8.10
2023-04-17T04:36:42.092Z,8.10
2023-04-17T04:39:10.080Z,8.10
2023-04-17T04:41:38.545Z,8.00
2023-04-17T04:44:06.221Z,8.10
2023-04-17T04:46:33.778Z,8.10
2023-04-17T04:49:01.386Z,8.10
2023-04-17T04:51:28.951Z,8.10
2023-04-17T04:53:56.430Z,8.10
2023-04-17T04:56:23.998Z,8.00
2023-04-17T04:58:51.524Z,7.90
2023-04-17T05:01:19.094Z,7.90
2023-04-17T05:03:46.737Z,7.90
2023-04-17T05:06:14.759Z,7.90
2023-04-17T05:08:42.253Z,7.90
2023-04-17T05:11:09.735Z,7.80
2023-04-17T05:13:37.238Z,7.80
2023-04-17T05:16:05.180Z,7.80
2023-04-17T05:18:32.652Z,7.80
2023-04-17T05:21:00.128Z,7.80
2023-04-17T05:23:28.564Z,7.80
2023-04-17T05:25:56.078Z,7.80
2023-04-17T05:28:23.558Z,7.80
2023-04-17T05:30:51.245Z,7.80
2023-04-17T05:33:18.762Z,7.80
2023-04-17T05:35:46.678Z,7.80
2023-04-17T05:38:14.140Z,7.80
2023-04-17T05:40:41.641Z,7.80
2023-04-17T05:43:10.881Z,7.90
2023-04-17T05:45:38.967Z,8.00
2023-04-17T05:48:06.633Z,8.10
2023-04-17T05:50:34.618Z,8.20
2023-04-17T05:53:02.300Z,8.20
2023-04-17T05:55:29.758Z,8.30
2023-04-17T05:57:58.360Z,8.30
2023-04-17T06:00:26.281Z,8.40
2023-04-17T06:02:53.790Z,8.40
2023-04-17T06:07:50.360Z,8.50
2023-04-17T06:10:17.944Z,8.50
2023-04-17T06:12:45.600Z,8.50
2023-04-17T06:15:13.262Z,8.60
2023-04-17T06:17:41.110Z,8.70
2023-04-17T06:20:12.858Z,8.70
2023-04-17T06:22:41.215Z,8.70
2023-04-17T06:25:09.033Z,8.70
2023-04-17T06:27:37.248Z,8.80
2023-04-17T06:30:06.632Z,8.70
2023-04-17T06:32:34.196Z,8.60
2023-04-17T06:35:01.715Z,8.60
2023-04-17T06:37:29.164Z,8.50
2023-04-17T06:39:56.876Z,8.40
2023-04-17T06:42:25.090Z,8.40
2023-04-17T06:44:52.655Z,8.30
2023-04-17T06:47:20.383Z,8.20
2023-04-17T06:49:47.907Z,8.20
2023-04-17T06:52:15.342Z,8.20
2023-04-17T06:54:42.846Z,8.20
2023-04-17T06:57:10.949Z,8.20
2023-04-17T06:59:39.220Z,8.10
2023-04-17T07:02:06.848Z,8.10
2023-04-17T07:04:34.503Z,8.20
2023-04-17T07:07:02.149Z,8.20
2023-04-17T07:09:29.684Z,8.20
2023-04-17T07:11:57.328Z,8.10
2023-04-17T07:14:24.960Z,8.10
2023-04-17T07:16:52.564Z,8.10
2023-04-17T07:19:20.677Z,8.20
2023-04-17T07:21:48.190Z,8.30
2023-04-17T07:24:16.000Z,8.40
2023-04-17T07:26:43.659Z,8.40
2023-04-17T07:29:11.541Z,8.50
2023-04-17T07:31:39.600Z,8.60
2023-04-17T07:34:07.267Z,8.70
2023-04-17T07:36:36.037Z,8.80
2023-04-17T07:39:03.907Z,8.90
2023-04-17T07:41:31.367Z,9.00
2023-04-17T07:43:59.141Z,9.10
2023-04-17T07:46:27.380Z,9.20
2023-04-17T07:48:54.962Z,9.30
2023-04-17T07:51:22.771Z,9.50
2023-04-17T07:53:50.317Z,9.50
2023-04-17T07:56:17.793Z,9.50
2023-04-17T07:58:45.687Z,9.60
2023-04-17T08:01:13.905Z,9.50
2023-04-17T08:03:42.117Z,9.50
2023-04-17T08:06:11.972Z,9.70
2023-04-17T08:08:39.514Z,9.90
2023-04-17T08:11:07.159Z,9.90
2023-04-17T08:13:34.814Z,9.90
2023-04-17T08:16:02.436Z,10.00
2023-04-17T08:18:30.057Z,10.00
2023-04-17T08:20:57.568Z,10.10
2023-04-17T08:23:25.481Z,10.20
2023-04-17T08:25:53.401Z,10.30
2023-04-17T08:28:21.425Z,10.20
2023-04-17T08:30:49.210Z,10.30
2023-04-17T08:33:18.755Z,10.40
2023-04-17T08:35:46.553Z,10.50
2023-04-17T08:38:14.921Z,10.40
2023-04-17T08:40:43.719Z,10.40
2023-04-17T08:43:19.794Z,10.60
2023-04-17T08:45:54.224Z,10.70
2023-04-17T08:48:23.664Z,10.90
2023-04-17T08:50:54.127Z,10.80
2023-04-17T08:53:22.048Z,10.70
2023-04-17T08:55:50.028Z,10.70
2023-04-17T08:58:18.167Z,10.50
2023-04-17T09:00:46.136Z,10.80
2023-04-17T09:03:15.748Z,10.80
2023-04-17T09:05:46.630Z,10.80
2023-04-17T09:08:17.506Z,10.90
2023-04-17T09:10:54.110Z,10.90
2023-04-17T09:13:29.711Z,10.90
2023-04-17T09:16:13.050Z,11.10
2023-04-17T09:18:43.236Z,11.20
2023-04-17T09:21:11.116Z,11.00
2023-04-17T09:23:55.634Z,11.20
2023-04-17T09:26:31.234Z,11.90
2023-04-17T09:29:04.798Z,12.20
2023-04-17T09:31:34.982Z,11.60
2023-04-17T09:34:07.853Z,11.40
2023-04-17T09:36:41.832Z,11.30
2023-04-17T09:39:26.485Z,11.40
2023-04-17T09:42:05.926Z,11.50
2023-04-17T09:44:37.192Z,11.40
2023-04-17T09:47:07.914Z,11.50
2023-04-17T09:49:52.520Z,11.70
2023-04-17T09:52:23.831Z,11.70
2023-04-17T09:54:53.969Z,11.80
2023-04-17T09:57:21.665Z,11.90
2023-04-17T09:59:49.622Z,11.90
2023-04-17T10:02:21.733Z,12.10
2023-04-17T10:04:50.044Z,12.30
2023-04-17T10:07:18.936Z,12.30
2023-04-17T10:09:47.454Z,12.50
2023-04-17T10:12:19.065Z,12.50
2023-04-17T10:14:50.431Z,12.10
2023-04-17T10:17:32.278Z,12.20
2023-04-17T10:20:18.233Z,12.20
2023-04-17T10:22:54.677Z,12.30
2023-04-17T10:25:29.998Z,12.50
2023-04-17T10:28:02.354Z,12.50
2023-04-17T10:31:02.889Z,12.40
2023-04-17T10:33:30.597Z,12.70
2023-04-17T10:35:58.306Z,12.70
2023-04-17T10:38:36.694Z,12.50
2023-04-17T10:41:09.596Z,12.10
2023-04-17T10:43:42.805Z,12.10
2023-04-17T10:46:15.406Z,12.20
2023-04-17T10:48:52.676Z,12.60
2023-04-17T10:51:27.496Z,12.60
2023-04-17T10:54:05.765Z,12.80
2023-04-17T10:56:42.177Z,13.10
2023-04-17T10:59:13.477Z,13.40
2023-04-17T11:01:50.355Z,13.20
2023-04-17T11:04:27.793Z,13.00
2023-04-17T11:06:55.978Z,13.20
2023-04-17T11:09:26.845Z,13.20
2023-04-17T11:11:54.972Z,13.20
2023-04-17T11:14:23.670Z,13.30
2023-04-17T11:16:52.518Z,13.20
2023-04-17T11:19:26.234Z,13.00
2023-04-17T11:22:01.713Z,13.10
2023-04-17T11:24:32.930Z,13.20
2023-04-17T11:27:03.796Z,13.60
2023-04-17T11:29:31.737Z,13.70
2023-04-17T11:32:01.077Z,13.70
2023-04-17T11:34:29.173Z,13.60
2023-04-17T11:37:01.572Z,14.00
2023-04-17T11:39:32.397Z,14.50
2023-04-17T11:42:02.597Z,14.70
2023-04-17T11:44:30.868Z,14.50
2023-04-17T11:46:59.706Z,14.60
2023-04-17T11:49:32.380Z,14.90
2023-04-17T11:52:04.407Z,15.10
2023-04-17T11:54:38.168Z,15.30
2023-04-17T11:57:14.529Z,15.80
2023-04-17T11:59:44.952Z,15.40
2023-04-17T12:02:15.701Z,15.70
2023-04-17T12:04:43.945Z,16.20
2023-04-17T12:07:24.557Z,16.20
2023-04-17T12:09:59.269Z,16.30
2023-04-17T12:12:27.093Z,15.90
2023-04-17T12:14:54.895Z,16.40
2023-04-17T12:17:22.526Z,16.20
2023-04-17T12:19:50.617Z,15.50
2023-04-17T12:22:18.214Z,15.20
2023-04-17T12:24:46.026Z,15.80
2023-04-17T12:27:13.626Z,16.30
2023-04-17T12:29:44.305Z,16.30
2023-04-17T12:32:12.998Z,16.10
2023-04-17T12:34:40.899Z,16.20
2023-04-17T12:37:08.615Z,16.30
2023-04-17T12:39:36.086Z,16.70
2023-04-17T12:42:03.859Z,16.50
2023-04-17T12:44:31.339Z,16.90
2023-04-17T12:46:58.913Z,17.50
2023-04-17T12:49:26.606Z,17.10
2023-04-17T12:51:54.655Z,16.90
2023-04-17T12:54:22.362Z,16.20
2023-04-17T12:56:49.942Z,15.60
2023-04-17T12:59:17.425Z,15.60
2023-04-17T13:01:44.985Z,15.60
2023-04-17T13:04:13.534Z,15.80
2023-04-17T13:06:41.299Z,15.80
2023-04-17T13:09:08.742Z,15.70
2023-04-17T13:11:36.228Z,16.10
2023-04-17T13:14:04.032Z,16.50
2023-04-17T13:16:32.042Z,16.00
2023-04-17T13:18:59.548Z,15.40
2023-04-17T13:21:27.064Z,15.40
2023-04-17T13:23:54.546Z,16.60
2023-04-17T13:26:22.069Z,17.40
2023-04-17T13:28:49.568Z,18.40
2023-04-17T13:31:17.150Z,18.00
2023-04-17T13:33:44.913Z,16.30
2023-04-17T13:36:12.637Z,15.50
2023-04-17T13:38:40.114Z,15.20
2023-04-17T13:41:07.617Z,15.60
2023-04-17T13:43:35.166Z,16.30
2023-04-17T13:46:02.772Z,16.60
2023-04-17T13:48:30.439Z,17.40
2023-04-17T13:50:58.037Z,17.40
2023-04-17T13:53:25.563Z,17.90
2023-04-17T13:55:53.062Z,17.90
2023-04-17T13:58:20.966Z,18.20
2023-04-17T14:00:48.638Z,18.50
2023-04-17T14:03:16.546Z,18.30
2023-04-17T14:05:44.342Z,18.10
2023-04-17T14:08:11.950Z,18.70
2023-04-17T14:10:39.578Z,18.60
2023-04-17T14:13:08.736Z,18.70
2023-04-17T14:15:36.430Z,18.80
2023-04-17T14:18:04.275Z,17.70
2023-04-17T14:20:32.181Z,17.30
2023-04-17T14:23:00.003Z,16.70
2023-04-17T14:25:27.860Z,16.30
2023-04-17T14:27:55.846Z,15.90
2023-04-17T14:30:23.585Z,15.70
2023-04-17T14:32:53.030Z,15.30
2023-04-17T14:35:21.159Z,15.10
2023-04-17T14:37:48.631Z,15.10
2023-04-17T14:40:16.090Z,15.00
2023-04-17T14:42:53.988Z,14.90
2023-04-17T14:45:22.247Z,15.00
2023-04-17T14:47:49.917Z,15.00
2023-04-17T14:50:17.680Z,14.90
2023-04-17T14:52:45.252Z,14.80
2023-04-17T14:55:13.432Z,14.60
2023-04-17T14:57:40.986Z,14.50
2023-04-17T15:00:09.308Z,14.30
2023-04-17T15:02:38.825Z,14.20
2023-04-17T15:05:07.976Z,14.20
2023-04-17T15:07:36.083Z,14.10
2023-04-17T15:10:04.011Z,14.10
2023-04-17T15:12:31.478Z,14.10
2023-04-17T15:14:58.991Z,14.40
2023-04-17T15:17:26.589Z,15.80
2023-04-17T15:19:57.529Z,16.90
2023-04-17T15:22:26.107Z,17.60
2023-04-17T15:24:53.919Z,17.80
2023-04-17T15:27:21.535Z,17.70
2023-04-17T15:29:49.004Z,17.30
2023-04-17T15:32:16.721Z,17.00
2023-04-17T15:34:44.360Z,15.90
2023-04-17T15:37:12.393Z,15.10
2023-04-17T15:39:40.740Z,14.60
2023-04-17T15:42:09.688Z,14.40
2023-04-17T15:44:37.855Z,14.30
2023-04-17T15:47:06.821Z,14.20
2023-04-17T15:49:34.534Z,14.20
2023-04-17T15:52:02.141Z,14.20
2023-04-17T15:54:29.583Z,14.20
2023-04-17T15:56:57.231Z,14.20
2023-04-17T15:59:25.018Z,14.10
2023-04-17T16:01:53.427Z,14.10
2023-04-17T16:04:21.290Z,13.90
2023-04-17T16:06:48.988Z,13.70
2023-04-17T16:09:20.117Z,13.50
2023-04-17T16:11:48.695Z,13.40
2023-04-17T16:14:16.514Z,13.40
2023-04-17T16:16:44.147Z,13.30
2023-04-17T16:19:11.861Z,13.20
2023-04-17T16:21:39.736Z,13.20
2023-04-17T16:24:07.326Z,13.20
2023-04-17T16:26:34.901Z,13.10
2023-04-17T16:29:02.426Z,13.10
2023-04-17T16:31:30.009Z,13.10
2023-04-17T16:33:57.543Z,13.10
2023-04-17T16:36:25.021Z,13.10
2023-04-17T16:38:52.483Z,13.10
2023-04-17T16:41:20.660Z,13.10
2023-04-17T16:43:48.125Z,13.00
2023-04-17T16:46:24.025Z,12.90
2023-04-17T16:48:59.361Z,12.90
2023-04-17T16:51:27.140Z,12.80
2023-04-17T16:53:54.623Z,12.80
2023-04-17T16:56:22.090Z,12.80
2023-04-17T16:58:49.673Z,12.80
2023-04-17T17:01:17.254Z,12.80
2023-04-17T17:03:45.376Z,12.70
2023-04-17T17:06:13.075Z,12.70
2023-04-17T17:08:43.351Z,12.70
2023-04-17T17:11:11.006Z,12.70
2023-04-17T17:13:38.494Z,12.60
2023-04-17T17:16:06.160Z,12.60
2023-04-17T17:18:33.716Z,12.50
2023-04-17T17:21:02.086Z,12.50
2023-04-17T17:23:29.532Z,12.50
2023-04-17T17:25:57.023Z,12.40
2023-04-17T17:28:24.552Z,12.40
2023-04-17T17:31:08.726Z,12.30
2023-04-17T17:33:37.107Z,12.30
2023-04-17T17:36:04.937Z,12.30
2023-04-17T17:38:32.825Z,12.20
2023-04-17T17:41:00.511Z,12.20
2023-04-17T17:43:30.915Z,12.20
2023-04-17T17:45:58.440Z,12.10
2023-04-17T17:48:26.029Z,12.10
2023-04-17T17:50:59.578Z,12.10
2023-04-17T17:53:27.351Z,12.00
2023-04-17T17:55:56.433Z,12.00
2023-04-17T17:58:24.840Z,12.00
2023-04-17T18:00:52.652Z,11.90
2023-04-17T18:03:21.146Z,11.90
2023-04-17T18:05:48.810Z,11.90
2023-04-17T18:08:17.675Z,11.90
2023-04-17T18:10:45.173Z,11.80
2023-04-17T18:13:12.648Z,11.80
2023-04-17T18:15:40.160Z,11.80
2023-04-17T18:18:07.654Z,11.80
2023-04-17T18:20:39.829Z,11.80
2023-04-17T18:23:07.451Z,11.80
2023-04-17T18:25:39.420Z,11.80
2023-04-17T18:28:07.048Z,11.70
2023-04-17T18:30:34.541Z,11.70
2023-04-17T18:33:02.057Z,11.70
2023-04-17T18:35:29.649Z,11.60
2023-04-17T18:37:57.155Z,11.60
2023-04-17T18:40:24.695Z,11.60
2023-04-17T18:42:52.270Z,11.50
2023-04-17T18:45:19.780Z,11.60
2023-04-17T18:47:47.492Z,11.50
2023-04-17T18:50:15.109Z,11.50
2023-04-17T18:52:46.282Z,11.50
2023-04-17T18:55:17.693Z,11.50
2023-04-17T18:57:45.287Z,11.50
2023-04-17T19:00:13.169Z,11.50
2023-04-17T19:02:40.955Z,11.50
2023-04-17T19:05:09.097Z,11.50
2023-04-17T19:07:36.610Z,11.40
2023-04-17T19:10:04.508Z,11.40
2023-04-17T19:12:32.197Z,11.40
2023-04-17T19:14:59.712Z,11.40
2023-04-17T19:17:27.236Z,11.40
2023-04-17T19:19:54.749Z,11.40
2023-04-17T19:22:22.350Z,11.30
2023-04-17T19:24:51.193Z,11.40
2023-04-17T19:27:19.507Z,11.30
2023-04-17T19:29:47.622Z,11.30
2023-04-17T19:32:18.382Z,11.20
2023-04-17T19:34:46.452Z,11.10
2023-04-17T19:37:14.029Z,11.00
2023-04-17T19:39:41.497Z,10.90
2023-04-17T19:42:09.029Z,10.80
2023-04-17T19:44:36.561Z,10.70
2023-04-17T19:47:04.707Z,10.60
2023-04-17T19:49:32.183Z,10.50
2023-04-17T19:52:01.107Z,10.40
2023-04-17T19:54:28.657Z,10.30
2023-04-17T19:56:56.301Z,10.30
2023-04-17T19:59:24.750Z,10.20
2023-04-17T20:01:52.278Z,10.10
2023-04-17T20:04:20.024Z,10.10
2023-04-17T20:06:47.605Z,10.00
2023-04-17T20:09:15.593Z,10.00
2023-04-17T20:11:43.365Z,10.00
2023-04-17T20:14:11.450Z,9.90
2023-04-17T20:16:38.920Z,9.80
2023-04-17T20:19:06.446Z,9.80
2023-04-17T20:21:34.006Z,9.80
2023-04-17T20:24:01.570Z,9.70
2023-04-17T20:26:29.202Z,9.70
2023-04-17T20:28:56.692Z,9.70
2023-04-17T20:31:24.188Z,9.60
2023-04-17T20:33:51.884Z,9.60
2023-04-17T20:36:19.415Z,9.60
2023-04-17T20:38:46.947Z,9.60
2023-04-17T20:41:14.444Z,9.60
2023-04-17T20:43:42.058Z,9.60
2023-04-17T20:46:09.671Z,9.60
2023-04-17T20:48:38.499Z,9.60
2023-04-17T20:51:06.247Z,9.60
2023-04-17T20:53:33.850Z,9.50
2023-04-17T20:56:01.558Z,9.50
2023-04-17T20:58:29.170Z,9.50
2023-04-17T21:01:01.356Z,9.50
2023-04-17T21:03:31.275Z,9.40
2023-04-17T21:06:01.158Z,9.40
2023-04-17T21:08:28.723Z,9.40
2023-04-17T21:10:56.288Z,9.40
2023-04-17T21:13:24.300Z,9.30
2023-04-17T21:15:51.880Z,9.30
2023-04-17T21:18:19.451Z,9.30
2023-04-17T21:20:47.074Z,9.30
2023-04-17T21:23:14.966Z,9.20
2023-04-17T21:25:42.521Z,9.30
2023-04-17T21:28:09.997Z,9.20
2023-04-17T21:30:37.674Z,9.20
2023-04-17T21:33:05.283Z,9.20
2023-04-17T21:35:32.900Z,9.20
2023-04-17T21:38:00.779Z,9.10
2023-04-17T21:40:33.064Z,9.10
2023-04-17T21:43:01.777Z,9.10
2023-04-17T21:45:31.609Z,9.10
2023-04-17T21:47:59.273Z,9.10
2023-04-17T21:50:26.767Z,9.10
2023-04-17T21:52:54.283Z,9.10
2023-04-17T21:55:21.950Z,9.10
2023-04-17T21:57:49.551Z,9.10
2023-04-17T22:00:17.815Z,9.10
2023-04-17T22:02:45.604Z,9.10
2023-04-17T22:05:13.334Z,9.10
2023-04-17T22:07:53.752Z,9.00
2023-04-17T22:10:23.033Z,9.00
2023-04-17T22:12:51.059Z,9.00
2023-04-17T22:15:18.957Z,8.90
2023-04-17T22:17:46.599Z,8.90
2023-04-17T22:21:29.369Z,8.90
2023-04-17T22:25:11.489Z,8.80
2023-04-17T22:28:53.900Z,8.80
2023-04-17T22:32:36.474Z,8.80
2023-04-17T22:36:18.930Z,8.80
2023-04-17T22:40:01.568Z,8.70
2023-04-17T22:43:44.330Z,8.80
2023-04-17T22:47:26.882Z,8.80
2023-04-17T22:51:09.317Z,8.80
2023-04-17T22:54:51.790Z,8.80
2023-04-17T22:58:34.180Z,8.80
2023-04-17T23:02:16.359Z,8.80
2023-04-17T23:05:58.997Z,8.80
2023-04-17T23:09:27.724Z,8.80
2023-04-17T23:11:55.630Z,8.80
2023-04-17T23:14:23.159Z,8.80
2023-04-17T23:16:52.816Z,8.80
2023-04-17T23:19:22.533Z,8.70
2023-04-17T23:21:50.173Z,8.70
2023-04-17T23:24:17.674Z,8.70
2023-04-17T23:26:45.133Z,8.70
2023-04-17T23:29:12.727Z,8.70
2023-04-17T23:31:40.337Z,8.70
2023-04-17T23:34:07.883Z,8.70
2023-04-17T23:36:35.729Z,8.70
2023-04-17T23:39:04.270Z,8.60
2023-04-17T23:41:33.831Z,8.60
2023-04-17T23:44:01.433Z,8.60
2023-04-17T23:46:28.994Z,8.60
2023-04-17T23:48:56.606Z,8.60
2023-04-17T23:51:24.111Z,8.60
2023-04-17T23:53:51.649Z,8.60
2023-04-17T23:56:22.294Z,8.60
2023-04-17T23:58:49.911Z,8.60
